Gainsborough, United Kingdom
Current Conditions -  °F | °C
As of 9:50 PM on Tuesday 27 Jan 2015 (Local Time) from EGXP Reporting Station
Broken Clouds Broken Clouds  
Wind Chill: 36°   Ceiling: 2200
Heat Index: 43°   Visibility: 6mi
Dew Point: 37°   Wind: 13mph
Humidity: 81%   Direction: 220°SW
Pressure: 30.03"   Gusts: NA
Location:  53.38°N, 0.77°W
Report Text: EGXP 272150Z AUTO 22011KT 9999 // BKN022/// BKN029/// 06/03 Q1017
Loading
Personal Weather Stations






























Interactive Weather Map New forecast layout! Learn more

10-Day Weather Forecast

Advertisements
Track Severe Weather on mobile